Time,TemperatureF,DewpointF,PressureIn,WindDirection,WindDirectionDegrees,WindSpeedMPH,WindSpeedGustMPH,Humidity,HourlyPrecipIn,Conditions,Clouds,dailyrainin,SolarRadiationWatts/m^2,SoftwareType,DateUTC
2013-07-06 00:01:00,73.4,60.9,30.12,SSE,158,3.3,5.8,65,0.00,CLR,OVC,0.00,0.0,WeatherDisplay:10.37,2013-07-06 04:01:00,
2013-07-06 00:02:00,73.4,60.9,30.12,SSE,158,3.6,4.6,65,0.00,CLR,OVC,0.00,0.0,WeatherDisplay:10.37,2013-07-06 04:02:00,
2013-07-06 00:03:00,73.4,60.9,30.12,SSE,158,3.1,4.6,65,0.00,CLR,OVC,0.00,0.0,WeatherDisplay:10.37,2013-07-06 04:03:00,
2013-07-06 00:08:00,73.4,61.3,30.12,SSE,158,2.6,3.5,66,0.00,CLR,OVC,0.00,0.0,WeatherDisplay:10.37,2013-07-06 04:08:00,
2013-07-06 00:13:00,73.4,61.3,30.12,SSE,158,3.8,5.6,66,0.00,CLR,OVC,0.00,0.0,WeatherDisplay:10.37,2013-07-06 04:13:00,
2013-07-06 00:18:00,73.2,61.6,30.12,SE,135,4.7,5.8,67,0.00,CLR,OVC,0.00,0.0,WeatherDisplay:10.37,2013-07-06 04:18:00,
2013-07-06 00:23:00,73.2,62.0,30.12,SSE,158,3.3,5.8,68,0.00,CLR,OVC,0.00,0.0,WeatherDisplay:10.37,2013-07-06 04:23:00,
2013-07-06 00:28:00,73.2,62.0,30.12,SSE,158,3.3,4.6,68,0.00,CLR,OVC,0.00,0.0,WeatherDisplay:10.37,2013-07-06 04:28:00,
2013-07-06 00:33:00,73.2,62.0,30.12,SSE,158,2.9,3.5,68,0.00,CLR,OVC,0.00,0.0,WeatherDisplay:10.37,2013-07-06 04:33:00,
2013-07-06 00:38:00,73.0,62.3,30.12,SSE,158,2.6,2.6,69,0.00,CLR,OVC,0.00,0.0,WeatherDisplay:10.37,2013-07-06 04:38:00,
2013-07-06 00:43:00,73.0,62.3,30.12,SSE,158,3.1,4.6,69,0.00,CLR,OVC,0.00,0.0,WeatherDisplay:10.37,2013-07-06 04:43:00,
2013-07-06 00:48:00,72.9,62.5,30.12,SSE,158,2.4,4.6,70,0.00,CLR,OVC,0.00,0.0,WeatherDisplay:10.37,2013-07-06 04:48:00,
2013-07-06 00:53:00,72.9,62.5,30.12,SSE,158,3.3,3.8,70,0.00,CLR,OVC,0.00,0.0,WeatherDisplay:10.37,2013-07-06 04:53:00,
2013-07-06 00:58:00,72.9,62.5,30.12,South,180,2.4,3.5,70,0.00,CLR,OVC,0.00,0.0,WeatherDisplay:10.37,2013-07-06 04:58:00,
2013-07-06 01:03:00,72.7,62.7,30.12,SSE,158,2.4,3.5,71,0.00,CLR,OVC,0.00,0.0,WeatherDisplay:10.37,2013-07-06 05:03:00,
2013-07-06 01:08:00,72.7,62.7,30.12,SSE,158,2.4,3.5,71,0.00,CLR,OVC,0.00,0.0,WeatherDisplay:10.37,2013-07-06 05:08:00,
2013-07-06 01:13:00,72.5,62.6,30.12,SSE,158,2.9,2.9,71,0.00,CLR,OVC,0.00,0.0,WeatherDisplay:10.37,2013-07-06 05:13:00,
2013-07-06 01:18:00,72.5,62.6,30.12,SSE,158,2.0,2.4,71,0.00,CLR,OVC,0.00,0.0,WeatherDisplay:10.37,2013-07-06 05:18:00,
2013-07-06 01:23:00,72.5,63.0,30.12,SSE,158,1.4,1.4,72,0.00,CLR,OVC,0.00,0.0,WeatherDisplay:10.37,2013-07-06 05:23:00,
2013-07-06 01:28:00,72.5,63.0,30.12,South,180,0.0,1.2,72,0.00,CLR,OVC,0.00,0.0,WeatherDisplay:10.37,2013-07-06 05:28:00,
2013-07-06 01:33:00,72.3,62.8,30.12,WSW,248,0.0,0.0,72,0.00,CLR,OVC,0.00,0.0,WeatherDisplay:10.37,2013-07-06 05:33:00,
2013-07-06 01:38:00,72.3,62.8,30.12,WSW,248,0.0,1.2,72,0.00,CLR,OVC,0.00,0.0,WeatherDisplay:10.37,2013-07-06 05:38:00,
2013-07-06 01:43:00,72.3,62.8,30.12,WSW,248,0.0,0.0,72,0.00,CLR,OVC,0.00,0.0,WeatherDisplay:10.37,2013-07-06 05:43:00,
2013-07-06 01:48:00,72.1,63.0,30.12,WSW,248,0.0,0.0,73,0.00,CLR,OVC,0.00,0.0,WeatherDisplay:10.37,2013-07-06 05:48:00,
2013-07-06 01:53:00,72.1,63.0,30.12,WSW,248,0.0,0.0,73,0.00,CLR,OVC,0.00,0.0,WeatherDisplay:10.37,2013-07-06 05:53:00,
2013-07-06 01:58:00,72.0,62.8,30.12,WSW,248,0.0,0.0,73,0.00,CLR,OVC,0.00,0.0,WeatherDisplay:10.37,2013-07-06 05:58:00,
2013-07-06 02:03:00,72.0,62.8,30.12,WSW,248,0.0,0.0,73,0.00,CLR,OVC,0.00,0.0,WeatherDisplay:10.37,2013-07-06 06:03:00,
2013-07-06 02:08:00,72.0,62.8,30.12,WSW,248,0.0,0.0,73,0.00,CLR,OVC,0.00,0.0,WeatherDisplay:10.37,2013-07-06 06:08:00,
2013-07-06 02:13:00,71.8,63.0,30.12,WSW,248,0.0,0.0,74,0.00,CLR,OVC,0.00,0.0,WeatherDisplay:10.37,2013-07-06 06:13:00,
2013-07-06 02:18:00,71.8,63.0,30.12,SW,225,0.0,1.2,74,0.00,CLR,OVC,0.00,0.0,WeatherDisplay:10.37,2013-07-06 06:18:00,
2013-07-06 02:23:00,71.8,63.0,30.12,SSW,202,0.0,0.0,74,0.00,CLR,OVC,0.00,0.0,WeatherDisplay:10.37,2013-07-06 06:23:00,
2013-07-06 02:28:00,71.6,62.9,30.12,SSW,202,0.0,0.0,74,0.00,CLR,OVC,0.00,0.0,WeatherDisplay:10.37,2013-07-06 06:28:00,
2013-07-06 02:33:00,71.6,63.3,30.12,SSW,202,0.0,0.0,75,0.00,CLR,OVC,0.00,0.0,WeatherDisplay:10.37,2013-07-06 06:33:00,
2013-07-06 02:38:00,71.6,63.3,30.12,SSE,158,1.6,2.3,75,0.00,CLR,OVC,0.00,0.0,WeatherDisplay:10.37,2013-07-06 06:38:00,
2013-07-06 02:43:00,71.6,63.3,30.12,SSE,158,1.6,3.5,75,0.00,CLR,OVC,0.00,0.0,WeatherDisplay:10.37,2013-07-06 06:43:00,
2013-07-06 02:48:00,71.6,63.3,30.12,SSE,158,1.6,2.3,75,0.00,CLR,OVC,0.00,0.0,WeatherDisplay:10.37,2013-07-06 06:48:00,
2013-07-06 02:53:00,71.6,63.3,30.12,SSE,158,2.6,3.3,75,0.00,CLR,OVC,0.00,0.0,WeatherDisplay:10.37,2013-07-06 06:53:00,
2013-07-06 02:58:00,71.4,63.5,30.12,SSE,158,2.0,3.5,76,0.00,CLR,OVC,0.00,0.0,WeatherDisplay:10.37,2013-07-06 06:58:00,
2013-07-06 03:03:00,71.4,63.5,30.12,SSE,158,3.1,4.6,76,0.00,CLR,OVC,0.00,0.0,WeatherDisplay:10.37,2013-07-06 07:03:00,
2013-07-06 03:08:00,71.4,63.8,30.12,SSE,158,2.6,2.6,77,0.00,CLR,OVC,0.00,0.0,WeatherDisplay:10.37,2013-07-06 07:08:00,
2013-07-06 03:13:00,71.4,63.8,30.12,SSE,158,2.0,2.4,77,0.00,CLR,OVC,0.00,0.0,WeatherDisplay:10.37,2013-07-06 07:13:00,
2013-07-06 03:18:00,71.4,63.8,30.12,SSE,158,2.9,3.6,77,0.00,CLR,OVC,0.00,0.0,WeatherDisplay:10.37,2013-07-06 07:18:00,
2013-07-06 03:23:00,71.4,63.8,30.12,South,180,3.6,4.6,77,0.00,CLR,OVC,0.00,0.0,WeatherDisplay:10.37,2013-07-06 07:23:00,
2013-07-06 03:28:00,71.4,64.2,30.12,SSW,202,2.6,2.9,78,0.00,CLR,OVC,0.00,0.0,WeatherDisplay:10.37,2013-07-06 07:28:00,
2013-07-06 03:33:00,71.4,64.2,30.12,South,180,2.2,3.5,78,0.00,CLR,OVC,0.00,0.0,WeatherDisplay:10.37,2013-07-06 07:33:00,
2013-07-06 03:38:00,71.2,64.0,30.12,SSE,158,3.6,4.6,78,0.00,CLR,OVC,0.00,0.0,WeatherDisplay:10.37,2013-07-06 07:38:00,
2013-07-06 03:43:00,71.2,64.0,30.12,South,180,3.8,5.8,78,0.00,CLR,OVC,0.00,0.0,WeatherDisplay:10.37,2013-07-06 07:43:00,
2013-07-06 03:48:00,71.2,64.4,30.12,SSE,158,3.3,3.8,79,0.00,CLR,OVC,0.00,0.0,WeatherDisplay:10.37,2013-07-06 07:48:00,
2013-07-06 03:53:00,71.2,64.4,30.12,SSE,158,3.3,5.8,79,0.00,CLR,OVC,0.00,0.0,WeatherDisplay:10.37,2013-07-06 07:53:00,
2013-07-06 03:58:00,71.1,64.2,30.12,South,180,4.3,6.9,79,0.00,CLR,OVC,0.00,0.0,WeatherDisplay:10.37,2013-07-06 07:58:00,
2013-07-06 04:03:00,71.1,64.2,30.12,SSE,158,3.3,4.6,79,0.00,CLR,OVC,0.00,0.0,WeatherDisplay:10.37,2013-07-06 08:03:00,
2013-07-06 04:08:00,71.1,64.2,30.12,SSE,158,2.0,3.5,79,0.00,CLR,OVC,0.00,0.0,WeatherDisplay:10.37,2013-07-06 08:08:00,
2013-07-06 04:13:00,71.1,64.2,30.12,SSW,202,4.0,5.4,79,0.00,CLR,OVC,0.00,0.0,WeatherDisplay:10.37,2013-07-06 08:13:00,
2013-07-06 04:18:00,71.1,64.2,30.12,SW,225,2.4,3.5,79,0.00,CLR,OVC,0.00,0.0,WeatherDisplay:10.37,2013-07-06 08:18:00,
2013-07-06 04:23:00,71.1,64.2,30.12,SW,225,2.2,2.3,79,0.00,CLR,OVC,0.00,0.0,WeatherDisplay:10.37,2013-07-06 08:23:00,
2013-07-06 04:28:00,71.1,64.2,30.12,SW,225,2.0,2.9,79,0.00,CLR,OVC,0.00,0.0,WeatherDisplay:10.37,2013-07-06 08:28:00,
2013-07-06 04:33:00,70.9,64.4,30.12,SSW,202,2.0,2.3,80,0.00,CLR,OVC,0.00,0.0,WeatherDisplay:10.37,2013-07-06 08:33:00,
2013-07-06 04:38:00,70.9,64.0,30.12,SSW,202,1.6,2.3,79,0.00,CLR,OVC,0.00,0.0,WeatherDisplay:10.37,2013-07-06 08:38:00,
2013-07-06 04:43:00,70.9,64.0,30.12,SW,225,2.0,2.9,79,0.00,CLR,OVC,0.00,0.0,WeatherDisplay:10.37,2013-07-06 08:43:00,
2013-07-06 04:48:00,70.9,64.0,30.12,SSW,202,2.2,2.3,79,0.00,CLR,OVC,0.00,0.0,WeatherDisplay:10.37,2013-07-06 08:48:00,
2013-07-06 04:53:00,70.9,64.0,30.12,SW,225,2.2,2.9,79,0.00,CLR,OVC,0.00,0.0,WeatherDisplay:10.37,2013-07-06 08:53:00,
2013-07-06 04:58:00,70.7,63.9,30.12,SW,225,2.0,2.3,79,0.00,CLR,OVC,0.00,0.0,WeatherDisplay:10.37,2013-07-06 08:58:00,
2013-07-06 05:03:00,70.7,63.9,30.09,SSW,202,2.2,3.5,79,0.00,CLR,OVC,0.00,0.0,WeatherDisplay:10.37,2013-07-06 09:03:00,
2013-07-06 05:08:00,70.7,64.2,30.09,SW,225,2.4,2.4,80,0.00,CLR,OVC,0.00,0.0,WeatherDisplay:10.37,2013-07-06 09:08:00,
2013-07-06 05:13:00,70.7,64.2,30.09,SSW,202,2.4,3.5,80,0.00,CLR,OVC,0.00,0.0,WeatherDisplay:10.37,2013-07-06 09:13:00,
2013-07-06 05:18:00,70.5,64.0,30.12,SSE,158,2.2,3.3,80,0.00,CLR,OVC,0.00,0.0,WeatherDisplay:10.37,2013-07-06 09:18:00,
2013-07-06 05:23:00,70.5,64.0,30.12,SW,225,2.2,2.3,80,0.00,CLR,OVC,0.00,0.0,WeatherDisplay:10.37,2013-07-06 09:23:00,
2013-07-06 05:28:00,70.5,64.0,30.12,SSW,202,2.2,2.4,80,0.00,CLR,OVC,0.00,0.0,WeatherDisplay:10.37,2013-07-06 09:28:00,
2013-07-06 05:33:00,70.5,64.0,30.12,SW,225,1.4,2.3,80,0.00,CLR,OVC,0.00,0.0,WeatherDisplay:10.37,2013-07-06 09:33:00,
2013-07-06 05:38:00,70.5,64.0,30.12,SSE,158,2.0,2.3,80,0.00,CLR,OVC,0.00,0.0,WeatherDisplay:10.37,2013-07-06 09:38:00,
2013-07-06 05:43:00,70.5,64.0,30.12,SSE,158,2.6,2.6,80,0.00,CLR,OVC,0.00,0.0,WeatherDisplay:10.37,2013-07-06 09:43:00,
2013-07-06 05:48:00,70.3,63.9,30.09,SSW,202,2.2,3.5,80,0.00,CLR,OVC,0.00,0.0,WeatherDisplay:10.37,2013-07-06 09:48:00,
2013-07-06 05:53:00,70.3,63.9,30.09,SSE,158,2.9,3.6,80,0.00,CLR,OVC,0.00,0.0,WeatherDisplay:10.37,2013-07-06 09:53:00,
2013-07-06 05:58:00,70.3,63.9,30.09,SSE,158,2.6,3.5,80,0.00,CLR,OVC,0.00,0.0,WeatherDisplay:10.37,2013-07-06 09:58:00,
2013-07-06 06:03:00,70.2,63.7,30.12,WSW,248,0.9,2.3,80,0.00,CLR,OVC,0.00,0.0,WeatherDisplay:10.37,2013-07-06 10:03:00,
2013-07-06 06:08:00,70.2,64.1,30.12,South,180,2.2,3.5,81,0.00,CLR,OVC,0.00,0.0,WeatherDisplay:10.37,2013-07-06 10:08:00,
2013-07-06 06:13:00,70.2,64.1,30.12,SSW,202,2.4,3.5,81,0.00,CLR,OVC,0.00,0.0,WeatherDisplay:10.37,2013-07-06 10:13:00,
2013-07-06 06:18:00,70.2,64.1,30.12,SSW,202,0.0,1.2,81,0.00,CLR,OVC,0.00,0.0,WeatherDisplay:10.37,2013-07-06 10:18:00,
2013-07-06 06:23:00,70.2,64.1,30.12,South,180,1.6,2.4,81,0.00,CLR,OVC,0.00,0.0,WeatherDisplay:10.37,2013-07-06 10:23:00,
2013-07-06 06:28:00,70.2,64.1,30.12,South,180,2.0,2.3,81,0.00,CLR,OVC,0.00,0.0,WeatherDisplay:10.37,2013-07-06 10:28:00,
2013-07-06 06:33:00,70.2,64.1,30.12,South,180,0.0,1.2,81,0.00,CLR,OVC,0.00,0.0,WeatherDisplay:10.37,2013-07-06 10:33:00,
2013-07-06 06:38:00,70.2,64.1,30.12,SSW,202,0.0,0.0,81,0.00,CLR,OVC,0.00,0.0,WeatherDisplay:10.37,2013-07-06 10:38:00,
2013-07-06 06:44:00,70.2,64.1,30.12,SSW,202,0.0,0.0,81,0.00,CLR,OVC,0.00,0.0,WeatherDisplay:10.37,2013-07-06 10:44:00,
2013-07-06 06:49:00,70.3,64.2,30.12,South,180,0.9,2.2,81,0.00,CLR,OVC,0.00,0.0,WeatherDisplay:10.37,2013-07-06 10:49:00,
2013-07-06 06:54:00,70.3,64.2,30.12,SSE,158,2.4,3.5,81,0.00,CLR,OVC,0.00,0.0,WeatherDisplay:10.37,2013-07-06 10:54:00,
2013-07-06 06:59:00,70.3,64.2,30.12,SSE,158,0.0,0.0,81,0.00,CLR,OVC,0.00,0.0,WeatherDisplay:10.37,2013-07-06 10:59:00,
2013-07-06 07:04:00,70.3,64.2,30.12,ESE,112,0.0,0.0,81,0.00,OVC,,0.00,0.0,WeatherDisplay:10.37,2013-07-06 11:04:00,
2013-07-06 07:09:00,70.3,64.2,30.12,ESE,112,0.0,0.0,81,0.00,OVC,,0.00,0.0,WeatherDisplay:10.37,2013-07-06 11:09:00,
2013-07-06 07:14:00,70.5,64.4,30.12,ESE,112,0.0,0.0,81,0.00,OVC,,0.00,0.0,WeatherDisplay:10.37,2013-07-06 11:14:00,
2013-07-06 07:19:00,71.2,65.5,30.12,ESE,112,0.0,0.0,82,0.00,OVC,,0.00,0.0,WeatherDisplay:10.37,2013-07-06 11:19:00,
2013-07-06 07:24:00,72.0,65.8,30.12,SSE,158,2.0,2.3,81,0.00,OVC,,0.00,0.0,WeatherDisplay:10.37,2013-07-06 11:24:00,
2013-07-06 07:29:00,73.0,66.5,30.12,SSE,158,2.0,2.4,80,0.00,OVC,,0.00,0.0,WeatherDisplay:10.37,2013-07-06 11:29:00,
2013-07-06 07:34:00,74.3,67.0,30.12,SSE,158,2.0,2.3,78,0.00,OVC,,0.00,100.0,WeatherDisplay:10.37,2013-07-06 11:34:00,
2013-07-06 07:39:00,75.4,66.5,30.12,SSE,158,0.0,1.2,74,0.00,OVC,,0.00,100.0,WeatherDisplay:10.37,2013-07-06 11:39:00,
2013-07-06 07:44:00,76.3,66.2,30.12,SSE,158,2.2,2.3,71,0.00,OVC,,0.00,100.0,WeatherDisplay:10.37,2013-07-06 11:44:00,
2013-07-06 07:49:00,76.8,66.3,30.15,SSE,158,2.2,2.3,70,0.00,OVC,,0.00,100.0,WeatherDisplay:10.37,2013-07-06 11:49:00,
2013-07-06 07:54:00,77.5,66.1,30.15,SSE,158,2.2,2.3,68,0.00,OVC,,0.00,100.0,WeatherDisplay:10.37,2013-07-06 11:54:00,
2013-07-06 07:59:00,78.1,65.8,30.15,SSE,158,2.2,2.3,66,0.00,OVC,,0.00,100.0,WeatherDisplay:10.37,2013-07-06 11:59:00,
2013-07-06 08:04:00,78.8,66.0,30.15,SSW,202,2.2,4.6,65,0.00,CLR,OVC,0.00,0.0,WeatherDisplay:10.37,2013-07-06 12:04:00,
2013-07-06 08:09:00,79.3,66.1,30.15,SSW,202,2.4,3.5,64,0.00,CLR,OVC,0.00,100.0,WeatherDisplay:10.37,2013-07-06 12:09:00,
2013-07-06 08:14:00,79.9,66.2,30.15,SW,225,2.9,3.1,63,0.00,CLR,OVC,0.00,100.0,WeatherDisplay:10.37,2013-07-06 12:14:00,
2013-07-06 08:19:00,80.2,65.6,30.15,SSW,202,1.2,2.3,61,0.00,CLR,OVC,0.00,200.0,WeatherDisplay:10.37,2013-07-06 12:19:00,
2013-07-06 08:24:00,80.8,65.6,30.15,SW,225,2.4,2.4,60,0.00,CLR,OVC,0.00,200.0,WeatherDisplay:10.37,2013-07-06 12:24:00,
2013-07-06 08:29:00,81.0,64.8,30.15,SSE,158,3.3,3.5,58,0.00,CLR,OVC,0.00,200.0,WeatherDisplay:10.37,2013-07-06 12:29:00,
2013-07-06 08:34:00,81.1,65.5,30.15,SSE,158,3.1,4.5,59,0.00,CLR,OVC,0.00,200.0,WeatherDisplay:10.37,2013-07-06 12:34:00,
2013-07-06 08:39:00,80.8,63.6,30.15,SSE,158,2.0,2.4,56,0.00,CLR,OVC,0.00,200.0,WeatherDisplay:10.37,2013-07-06 12:39:00,
2013-07-06 08:44:00,80.8,64.1,30.15,SSW,202,2.2,2.6,57,0.00,CLR,OVC,0.00,200.0,WeatherDisplay:10.37,2013-07-06 12:44:00,
2013-07-06 08:49:00,81.5,64.8,30.15,West,270,0.9,2.3,57,0.00,CLR,OVC,0.00,200.0,WeatherDisplay:10.37,2013-07-06 12:49:00,
2013-07-06 08:54:00,81.9,65.1,30.15,SW,225,1.4,2.4,57,0.00,CLR,OVC,0.00,300.0,WeatherDisplay:10.37,2013-07-06 12:54:00,
2013-07-06 08:59:00,82.2,65.0,30.15,SSW,202,2.2,3.6,56,0.00,CLR,OVC,0.00,300.0,WeatherDisplay:10.37,2013-07-06 12:59:00,
2013-07-06 09:04:00,82.4,65.1,30.15,WSW,248,2.2,4.6,56,0.00,FEW,OVC,0.00,300.0,WeatherDisplay:10.37,2013-07-06 13:04:00,
2013-07-06 09:09:00,82.9,64.6,30.15,SSE,158,0.9,1.2,54,0.00,FEW,OVC,0.00,400.0,WeatherDisplay:10.37,2013-07-06 13:09:00,
2013-07-06 09:14:00,83.5,65.1,30.15,West,270,2.2,3.5,54,0.00,FEW,OVC,0.00,0.0,WeatherDisplay:10.37,2013-07-06 13:14:00,
2013-07-06 09:19:00,83.8,64.3,30.15,SSW,202,1.2,2.4,52,0.00,FEW,OVC,0.00,400.0,WeatherDisplay:10.37,2013-07-06 13:19:00,
2013-07-06 09:24:00,83.8,64.9,30.15,WSW,248,3.8,4.6,53,0.00,FEW,OVC,0.00,600.0,WeatherDisplay:10.37,2013-07-06 13:24:00,
2013-07-06 09:29:00,83.8,64.3,30.15,SSW,202,1.6,2.3,52,0.00,FEW,OVC,0.00,400.0,WeatherDisplay:10.37,2013-07-06 13:29:00,
2013-07-06 09:34:00,83.5,63.4,30.15,SW,225,0.9,3.5,51,0.00,FEW,OVC,0.00,400.0,WeatherDisplay:10.37,2013-07-06 13:34:00,
2013-07-06 09:39:00,83.5,64.0,30.15,West,270,1.4,1.4,52,0.00,FEW,OVC,0.00,500.0,WeatherDisplay:10.37,2013-07-06 13:39:00,
2013-07-06 09:44:00,83.5,64.0,30.15,SSW,202,2.0,2.4,52,0.00,FEW,OVC,0.00,0.0,WeatherDisplay:10.37,2013-07-06 13:44:00,
2013-07-06 09:49:00,84.0,65.0,30.15,SSE,158,3.1,3.8,53,0.00,FEW,OVC,0.00,800.0,WeatherDisplay:10.37,2013-07-06 13:49:00,
2013-07-06 09:54:00,84.6,65.5,30.15,SSE,158,4.0,4.6,53,0.00,FEW,OVC,0.00,600.0,WeatherDisplay:10.37,2013-07-06 13:54:00,
2013-07-06 09:59:00,84.6,65.5,30.15,SSE,158,4.3,5.8,53,0.00,FEW,OVC,0.00,900.0,WeatherDisplay:10.37,2013-07-06 13:59:00,
2013-07-06 10:04:00,84.6,65.5,30.15,SE,135,3.8,5.8,53,0.00,OVC,,0.00,600.0,WeatherDisplay:10.37,2013-07-06 14:04:00,
2013-07-06 10:09:00,84.4,64.8,30.15,SE,135,3.6,3.6,52,0.00,OVC,,0.00,600.0,WeatherDisplay:10.37,2013-07-06 14:09:00,
2013-07-06 10:14:00,84.4,64.8,30.15,SE,135,3.3,4.6,52,0.00,OVC,,0.00,500.0,WeatherDisplay:10.37,2013-07-06 14:14:00,
2013-07-06 10:19:00,84.0,64.5,30.12,SSE,158,4.3,4.6,52,0.00,OVC,,0.00,500.0,WeatherDisplay:10.37,2013-07-06 14:19:00,
2013-07-06 10:24:00,83.7,64.7,30.12,SSE,158,3.6,5.8,53,0.00,OVC,,0.00,600.0,WeatherDisplay:10.37,2013-07-06 14:24:00,
2013-07-06 10:29:00,83.7,64.7,30.12,South,180,4.7,4.7,53,0.00,OVC,,0.00,700.0,WeatherDisplay:10.37,2013-07-06 14:29:00,
2013-07-06 10:34:00,83.7,64.7,30.12,SSE,158,4.3,5.8,53,0.00,OVC,,0.00,700.0,WeatherDisplay:10.37,2013-07-06 14:34:00,
2013-07-06 10:39:00,83.8,65.4,30.12,SSE,158,3.6,3.6,54,0.00,OVC,,0.00,800.0,WeatherDisplay:10.37,2013-07-06 14:39:00,
2013-07-06 10:44:00,84.0,65.6,30.12,SSE,158,4.0,5.8,54,0.00,OVC,,0.00,900.0,WeatherDisplay:10.37,2013-07-06 14:44:00,
2013-07-06 10:49:00,84.2,64.1,30.12,SSE,158,2.4,3.5,51,0.00,OVC,,0.00,1000.0,WeatherDisplay:10.37,2013-07-06 14:49:00,
2013-07-06 10:54:00,84.6,65.0,30.12,SSE,158,3.1,4.6,52,0.00,OVC,,0.00,800.0,WeatherDisplay:10.37,2013-07-06 14:54:00,
2013-07-06 10:59:00,84.7,64.6,30.12,SSE,158,3.8,4.6,51,0.00,OVC,,0.00,800.0,WeatherDisplay:10.37,2013-07-06 14:59:00,
2013-07-06 11:04:00,84.7,64.6,30.12,SE,135,4.3,4.6,51,0.00,BKN,OVC,0.00,700.0,WeatherDisplay:10.37,2013-07-06 15:04:00,
2013-07-06 11:09:00,84.9,64.2,30.12,SE,135,4.3,4.7,50,0.00,BKN,OVC,0.00,800.0,WeatherDisplay:10.37,2013-07-06 15:09:00,
2013-07-06 11:14:00,85.3,64.5,30.12,SSE,158,4.5,6.9,50,0.00,BKN,OVC,0.00,1100.0,WeatherDisplay:10.37,2013-07-06 15:14:00,
2013-07-06 11:19:00,85.5,64.7,30.12,SSE,158,4.0,5.8,50,0.00,BKN,OVC,0.00,1000.0,WeatherDisplay:10.37,2013-07-06 15:19:00,
2013-07-06 11:24:00,85.6,64.9,30.12,SSW,202,6.7,9.2,50,0.00,BKN,OVC,0.00,700.0,WeatherDisplay:10.37,2013-07-06 15:24:00,
2013-07-06 11:29:00,85.8,65.0,30.12,SE,135,2.0,4.0,50,0.00,BKN,OVC,0.00,1400.0,WeatherDisplay:10.37,2013-07-06 15:29:00,
2013-07-06 11:34:00,86.5,65.7,30.12,ESE,112,5.9,8.1,50,0.00,BKN,OVC,0.00,1300.0,WeatherDisplay:10.37,2013-07-06 15:34:00,
2013-07-06 11:39:00,86.5,65.1,30.12,SSE,158,6.7,10.4,49,0.00,BKN,OVC,0.00,700.0,WeatherDisplay:10.37,2013-07-06 15:39:00,
2013-07-06 11:44:00,86.4,64.9,30.12,SE,135,6.4,8.1,49,0.00,BKN,OVC,0.00,800.0,WeatherDisplay:10.37,2013-07-06 15:44:00,
2013-07-06 11:49:00,86.4,64.9,30.12,South,180,4.9,5.8,49,0.00,BKN,OVC,0.00,1300.0,WeatherDisplay:10.37,2013-07-06 15:49:00,
2013-07-06 11:54:00,86.7,65.3,30.12,SE,135,4.5,8.1,49,0.00,BKN,OVC,0.00,800.0,WeatherDisplay:10.37,2013-07-06 15:54:00,
2013-07-06 11:59:00,86.7,65.3,30.12,SE,135,2.9,5.4,49,0.00,BKN,OVC,0.00,900.0,WeatherDisplay:10.37,2013-07-06 15:59:00,
2013-07-06 12:04:00,86.7,65.3,30.12,SSW,202,5.4,5.8,49,0.00,BKN,OVC,0.00,1000.0,WeatherDisplay:10.37,2013-07-06 16:04:00,
2013-07-06 12:09:00,86.5,65.1,30.12,SSE,158,7.6,9.2,49,0.00,BKN,OVC,0.00,700.0,WeatherDisplay:10.37,2013-07-06 16:09:00,
2013-07-06 12:14:00,86.4,64.9,30.12,SSE,158,4.0,5.8,49,0.00,BKN,OVC,0.00,700.0,WeatherDisplay:10.37,2013-07-06 16:14:00,
2013-07-06 12:19:00,86.0,63.4,30.12,SSE,158,7.1,10.4,47,0.00,BKN,OVC,0.00,700.0,WeatherDisplay:10.37,2013-07-06 16:19:00,
2013-07-06 12:25:00,86.0,64.0,30.12,SSE,158,5.6,7.4,48,0.00,BKN,OVC,0.00,0.0,WeatherDisplay:10.37,2013-07-06 16:25:00,
2013-07-06 12:30:00,86.5,65.1,30.12,SSE,158,2.9,9.2,49,0.00,BKN,OVC,0.00,1500.0,WeatherDisplay:10.37,2013-07-06 16:30:00,
2013-07-06 12:35:00,86.9,64.8,30.12,SSE,158,7.6,13.8,48,0.00,BKN,OVC,0.00,0.0,WeatherDisplay:10.37,2013-07-06 16:35:00,
2013-07-06 12:41:00,87.1,64.4,30.12,SSE,158,4.9,7.1,47,0.00,BKN,OVC,0.00,0.0,WeatherDisplay:10.37,2013-07-06 16:41:00,
2013-07-06 12:48:00,87.1,64.4,30.12,SSE,158,6.0,8.1,47,0.00,BKN,OVC,0.00,1000.0,WeatherDisplay:10.37,2013-07-06 16:48:00,
2013-07-06 12:53:00,87.1,63.8,30.12,SSE,158,7.6,7.6,46,0.00,BKN,OVC,0.00,0.0,WeatherDisplay:10.37,2013-07-06 16:53:00,
2013-07-06 12:59:00,87.1,63.8,30.12,SSE,158,5.4,7.6,46,0.00,BKN,OVC,0.00,600.0,WeatherDisplay:10.37,2013-07-06 16:59:00,
2013-07-06 13:04:00,86.9,63.0,30.12,SSE,158,9.2,10.4,45,0.00,BKN,OVC,0.00,1600.0,WeatherDisplay:10.37,2013-07-06 17:04:00,
2013-07-06 13:09:00,86.9,63.6,30.12,SSE,158,6.0,8.1,46,0.00,BKN,OVC,0.00,700.0,WeatherDisplay:10.37,2013-07-06 17:09:00,
2013-07-06 13:15:00,86.7,64.1,30.12,SSE,152,9.0,13.0,47,0.00,BKN,OVC,0.00,0.0,WeatherDisplay:10.37,2013-07-06 17:15:00,
2013-07-06 13:20:00,86.7,64.7,30.12,SSE,151,7.0,13.0,48,0.00,BKN,OVC,0.00,0.0,WeatherDisplay:10.37,2013-07-06 17:20:00,
2013-07-06 13:25:00,86.7,64.7,30.12,SSE,147,8.0,11.0,48,0.00,BKN,OVC,0.00,0.0,WeatherDisplay:10.37,2013-07-06 17:25:00,
2013-07-06 13:30:00,86.2,63.6,30.12,ESE,112,9.2,10.4,47,0.00,BKN,OVC,0.00,800.0,WeatherDisplay:10.37,2013-07-06 17:30:00,
2013-07-06 13:36:00,86.2,63.6,30.12,South,180,4.7,9.8,47,0.00,BKN,OVC,0.00,800.0,WeatherDisplay:10.37,2013-07-06 17:36:00,
2013-07-06 13:41:00,86.0,63.4,30.12,South,180,6.0,10.7,47,0.00,BKN,OVC,0.00,800.0,WeatherDisplay:10.37,2013-07-06 17:41:00,
2013-07-06 13:46:00,85.8,63.3,30.12,SSE,158,9.0,12.8,47,0.00,BKN,OVC,0.00,700.0,WeatherDisplay:10.37,2013-07-06 17:46:00,
2013-07-06 13:51:00,85.6,63.1,30.12,South,180,4.7,11.5,47,0.00,BKN,OVC,0.00,800.0,WeatherDisplay:10.37,2013-07-06 17:51:00,
2013-07-06 13:57:00,85.8,63.9,30.12,SSE,158,5.6,6.9,48,0.00,BKN,OVC,0.00,0.0,WeatherDisplay:10.37,2013-07-06 17:57:00,
2013-07-06 14:02:00,86.2,64.2,30.12,South,180,5.6,11.5,48,0.00,BKN,OVC,0.00,1000.0,WeatherDisplay:10.37,2013-07-06 18:02:00,
2013-07-06 14:07:00,86.4,64.4,30.12,SSE,158,6.7,10.9,48,0.00,BKN,OVC,0.00,700.0,WeatherDisplay:10.37,2013-07-06 18:07:00,
2013-07-06 14:12:00,86.4,63.8,30.12,South,180,9.2,11.5,47,0.00,BKN,OVC,0.00,700.0,WeatherDisplay:10.37,2013-07-06 18:12:00,
2013-07-06 14:18:00,86.4,63.8,30.09,SSE,158,4.9,5.8,47,0.00,BKN,OVC,0.00,0.0,WeatherDisplay:10.37,2013-07-06 18:18:00,
2013-07-06 14:23:00,86.5,65.1,30.09,ESE,112,5.9,5.9,49,0.00,BKN,OVC,0.00,0.0,WeatherDisplay:10.37,2013-07-06 18:23:00,
2013-07-06 14:28:00,86.7,64.7,30.09,SSE,158,5.6,6.9,48,0.00,BKN,OVC,0.00,1000.0,WeatherDisplay:10.37,2013-07-06 18:28:00,
2013-07-06 14:35:00,86.9,64.2,30.09,SE,135,4.3,6.9,47,0.00,BKN,OVC,0.00,1200.0,WeatherDisplay:10.37,2013-07-06 18:35:00,
2013-07-06 14:42:00,87.1,64.4,30.09,SSE,158,7.1,8.1,47,0.00,BKN,OVC,0.00,900.0,WeatherDisplay:10.37,2013-07-06 18:42:00,
2013-07-06 14:48:00,87.1,65.0,30.09,South,180,4.7,6.0,48,0.00,BKN,OVC,0.00,800.0,WeatherDisplay:10.37,2013-07-06 18:48:00,
2013-07-06 14:53:00,87.1,64.4,30.09,SSE,158,4.3,5.8,47,0.00,BKN,OVC,0.00,700.0,WeatherDisplay:10.37,2013-07-06 18:53:00,
2013-07-06 15:00:00,87.1,64.4,30.09,SSE,158,5.4,5.8,47,0.00,BKN,OVC,0.00,700.0,WeatherDisplay:10.37,2013-07-06 19:00:00,
2013-07-06 15:05:00,87.1,64.4,30.06,SSE,158,6.2,6.9,47,0.00,FEW,OVC,0.00,700.0,WeatherDisplay:10.37,2013-07-06 19:05:00,
2013-07-06 15:10:00,87.1,63.8,30.06,SSE,158,5.4,8.1,46,0.00,FEW,OVC,0.00,500.0,WeatherDisplay:10.37,2013-07-06 19:10:00,
2013-07-06 15:15:00,86.9,63.6,30.06,South,180,5.4,8.1,46,0.00,FEW,OVC,0.00,500.0,WeatherDisplay:10.37,2013-07-06 19:15:00,
2013-07-06 15:20:00,86.7,64.1,30.06,SSE,158,4.9,4.9,47,0.00,FEW,OVC,0.00,600.0,WeatherDisplay:10.37,2013-07-06 19:20:00,
2013-07-06 15:28:00,86.7,64.1,30.06,SE,135,5.4,8.1,47,0.00,FEW,OVC,0.00,500.0,WeatherDisplay:10.37,2013-07-06 19:28:00,
2013-07-06 15:33:00,86.7,64.7,30.06,SE,135,5.4,8.1,48,0.00,FEW,OVC,0.00,500.0,WeatherDisplay:10.37,2013-07-06 19:33:00,
2013-07-06 15:39:00,86.5,64.5,30.06,SE,135,6.2,9.2,48,0.00,FEW,OVC,0.00,600.0,WeatherDisplay:10.37,2013-07-06 19:39:00,
2013-07-06 15:44:00,86.7,65.3,30.06,SSE,158,7.1,8.1,49,0.00,FEW,OVC,0.00,800.0,WeatherDisplay:10.37,2013-07-06 19:44:00,
2013-07-06 15:49:00,86.5,65.1,30.06,SE,135,4.9,6.2,49,0.00,FEW,OVC,0.00,800.0,WeatherDisplay:10.37,2013-07-06 19:49:00,
2013-07-06 15:54:00,86.7,65.3,30.06,ESE,112,4.3,5.8,49,0.00,FEW,OVC,0.00,500.0,WeatherDisplay:10.37,2013-07-06 19:54:00,
2013-07-06 16:00:00,86.5,63.9,30.06,SSE,158,5.6,5.8,47,0.00,FEW,OVC,0.00,500.0,WeatherDisplay:10.37,2013-07-06 20:00:00,
2013-07-06 16:05:00,86.4,63.8,30.06,SE,140,3.0,8.0,47,0.00,OVC,OVC,0.00,0.0,WeatherDisplay:10.37,2013-07-06 20:05:00,
2013-07-06 16:11:00,86.4,64.4,30.06,SE,135,3.1,3.5,48,0.00,OVC,,0.00,300.0,WeatherDisplay:10.37,2013-07-06 20:11:00,
2013-07-06 16:17:00,86.0,63.4,30.06,SE,135,4.0,5.8,47,0.00,OVC,,0.00,200.0,WeatherDisplay:10.37,2013-07-06 20:17:00,
2013-07-06 16:23:00,85.6,63.7,30.06,SE,135,5.4,8.1,48,0.00,OVC,,0.00,100.0,WeatherDisplay:10.37,2013-07-06 20:23:00,
2013-07-06 16:28:00,85.1,63.8,30.06,SSE,158,9.4,11.5,49,0.00,OVC,,0.00,0.0,WeatherDisplay:10.37,2013-07-06 20:28:00,
2013-07-06 16:34:00,83.8,63.8,30.06,SSE,158,6.7,8.1,51,0.00,OVC,,0.00,0.0,WeatherDisplay:10.37,2013-07-06 20:34:00,
2013-07-06 16:39:00,82.6,63.2,30.06,SSE,158,4.5,5.8,52,0.04,RA,OVC,0.04,0.0,WeatherDisplay:10.37,2013-07-06 20:39:00,
2013-07-06 16:44:00,81.7,63.4,30.06,South,180,4.0,5.8,54,0.04,RA,OVC,0.04,0.0,WeatherDisplay:10.37,2013-07-06 20:44:00,
2013-07-06 16:50:00,81.1,63.4,30.06,SSE,158,3.8,5.8,55,0.04,OVC,,0.04,100.0,WeatherDisplay:10.37,2013-07-06 20:50:00,
2013-07-06 16:55:00,80.8,63.6,30.06,SSE,158,3.6,8.1,56,0.04,OVC,,0.04,100.0,WeatherDisplay:10.37,2013-07-06 20:55:00,
2013-07-06 17:01:00,80.2,63.1,30.06,South,180,6.0,8.1,56,0.12,RA,OVC,0.12,100.0,WeatherDisplay:10.37,2013-07-06 21:01:00,
2013-07-06 17:07:00,79.9,63.3,30.06,South,180,3.6,4.6,57,0.12,RA,OVC,0.12,100.0,WeatherDisplay:10.37,2013-07-06 21:07:00,
2013-07-06 17:12:00,79.5,63.4,30.06,SSE,158,3.6,4.6,58,0.12,OVC,,0.12,100.0,WeatherDisplay:10.37,2013-07-06 21:12:00,
2013-07-06 17:17:00,79.2,64.1,30.06,South,180,2.9,4.6,60,0.12,OVC,,0.12,100.0,WeatherDisplay:10.37,2013-07-06 21:17:00,
2013-07-06 17:22:00,79.0,64.4,30.06,SSW,202,1.6,2.3,61,0.12,OVC,,0.12,100.0,WeatherDisplay:10.37,2013-07-06 21:22:00,
2013-07-06 17:27:00,79.0,64.4,30.06,WSW,248,0.9,1.4,61,0.12,OVC,,0.12,200.0,WeatherDisplay:10.37,2013-07-06 21:27:00,
2013-07-06 17:33:00,78.8,64.2,30.06,SSE,158,0.0,1.2,61,0.12,OVC,,0.12,200.0,WeatherDisplay:10.37,2013-07-06 21:33:00,
2013-07-06 17:38:00,78.8,64.7,30.06,SSE,158,1.6,2.4,62,0.08,OVC,,0.12,200.0,WeatherDisplay:10.37,2013-07-06 21:38:00,
2013-07-06 17:43:00,79.0,64.8,30.06,ESE,112,2.4,3.1,62,0.08,OVC,,0.12,200.0,WeatherDisplay:10.37,2013-07-06 21:43:00,
2013-07-06 17:48:00,79.0,64.4,30.06,SE,135,2.2,3.5,61,0.08,OVC,,0.12,300.0,WeatherDisplay:10.37,2013-07-06 21:48:00,
2013-07-06 17:53:00,79.0,64.4,30.06,SSE,158,2.9,4.6,61,0.08,OVC,,0.12,300.0,WeatherDisplay:10.37,2013-07-06 21:53:00,
2013-07-06 18:00:00,79.0,64.4,30.06,SSE,158,3.1,4.6,61,0.00,OVC,,0.12,300.0,WeatherDisplay:10.37,2013-07-06 22:00:00,
2013-07-06 18:05:00,79.0,64.8,30.06,SSE,158,3.6,4.6,62,0.00,-RA,OVC,0.12,300.0,WeatherDisplay:10.37,2013-07-06 22:05:00,
2013-07-06 18:10:00,79.0,64.4,30.06,SSE,160,2.0,5.0,61,0.00,-RA,OVC,0.12,0.0,WeatherDisplay:10.37,2013-07-06 22:10:00,
2013-07-06 18:15:00,79.0,64.8,30.09,SSE,158,3.8,5.8,62,0.00,-RA,OVC,0.12,200.0,WeatherDisplay:10.37,2013-07-06 22:15:00,
2013-07-06 18:20:00,79.0,64.8,30.09,South,180,4.3,5.8,62,0.00,-RA,OVC,0.12,0.0,WeatherDisplay:10.37,2013-07-06 22:20:00,
2013-07-06 18:25:00,78.8,64.7,30.09,South,171,6.0,7.0,62,0.00,-RA,OVC,0.12,0.0,WeatherDisplay:10.37,2013-07-06 22:25:00,
2013-07-06 18:30:00,78.7,64.6,30.09,SSE,163,5.0,6.0,62,0.00,-RA,OVC,0.12,0.0,WeatherDisplay:10.37,2013-07-06 22:30:00,
2013-07-06 18:35:00,78.4,64.3,30.06,SSE,158,5.4,5.8,62,0.00,-RA,OVC,0.12,0.0,WeatherDisplay:10.37,2013-07-06 22:35:00,
2013-07-06 18:40:00,78.3,64.2,30.06,SE,135,6.0,9.2,62,0.00,-RA,OVC,0.12,0.0,WeatherDisplay:10.37,2013-07-06 22:40:00,
2013-07-06 18:46:00,77.9,64.3,30.06,SE,135,3.3,4.6,63,0.09,-RA,OVC,0.21,100.0,WeatherDisplay:10.37,2013-07-06 22:46:00,
2013-07-06 18:51:00,77.7,64.1,30.06,ESE,112,2.2,3.6,63,0.09,-RA,OVC,0.21,100.0,WeatherDisplay:10.37,2013-07-06 22:51:00,
2013-07-06 18:57:00,77.5,64.4,30.06,SSE,158,3.6,4.6,64,0.09,-RA,OVC,0.21,100.0,WeatherDisplay:10.37,2013-07-06 22:57:00,
2013-07-06 19:02:00,77.5,64.4,30.06,SSE,158,4.7,5.8,64,0.09,-RA,OVC,0.21,100.0,WeatherDisplay:10.37,2013-07-06 23:02:00,
2013-07-06 19:07:00,77.5,64.8,30.06,SSE,158,3.3,4.6,65,0.09,-RA,OVC,0.21,100.0,WeatherDisplay:10.37,2013-07-06 23:07:00,
2013-07-06 19:15:00,77.4,64.7,30.06,SE,135,3.1,4.7,65,0.09,-RA,OVC,0.21,100.0,WeatherDisplay:10.37,2013-07-06 23:15:00,
2013-07-06 19:20:00,77.4,65.1,30.06,ESE,112,2.9,3.5,66,0.09,-RA,OVC,0.21,100.0,WeatherDisplay:10.37,2013-07-06 23:20:00,
2013-07-06 19:26:00,77.4,64.7,30.06,SSE,158,2.9,4.7,65,0.09,-RA,OVC,0.21,200.0,WeatherDisplay:10.37,2013-07-06 23:26:00,
2013-07-06 19:31:00,77.4,64.7,30.03,ESE,112,3.1,4.6,65,0.09,-RA,OVC,0.21,200.0,WeatherDisplay:10.37,2013-07-06 23:31:00,
2013-07-06 19:37:00,77.4,65.1,30.03,SSE,158,2.9,3.8,66,0.09,-RA,OVC,0.21,100.0,WeatherDisplay:10.37,2013-07-06 23:37:00,
2013-07-06 19:42:00,77.2,64.9,30.03,SSE,158,3.3,4.6,66,0.09,-RA,OVC,0.21,100.0,WeatherDisplay:10.37,2013-07-06 23:42:00,
2013-07-06 19:47:00,77.2,64.9,30.03,ESE,112,4.3,5.8,66,0.00,-RA,OVC,0.21,100.0,WeatherDisplay:10.37,2013-07-06 23:47:00,
2013-07-06 19:53:00,77.0,64.8,30.03,ESE,112,4.3,6.4,66,0.00,-RA,OVC,0.21,100.0,WeatherDisplay:10.37,2013-07-06 23:53:00,
2013-07-06 19:58:00,76.8,64.6,30.03,ESE,112,5.4,5.8,66,0.00,-RA,OVC,0.21,0.0,WeatherDisplay:10.37,2013-07-06 23:58:00,
2013-07-06 20:04:00,76.6,64.4,30.03,ESE,112,2.9,4.6,66,0.00,-RA,OVC,0.21,0.0,WeatherDisplay:10.37,2013-07-07 00:04:00,
2013-07-06 20:09:00,76.5,64.3,30.03,SE,135,2.4,3.5,66,0.00,-RA,OVC,0.21,0.0,WeatherDisplay:10.37,2013-07-07 00:09:00,
2013-07-06 20:15:00,76.3,64.1,30.03,SE,135,2.4,3.5,66,0.00,-RA,OVC,0.21,0.0,WeatherDisplay:10.37,2013-07-07 00:15:00,
2013-07-06 20:20:00,76.1,63.9,30.03,ESE,115,2.0,3.0,66,0.00,-RA,OVC,0.21,0.0,WeatherDisplay:10.37,2013-07-07 00:20:00,
2013-07-06 20:26:00,76.1,63.9,30.03,SE,135,0.0,2.3,66,0.00,-RA,OVC,0.21,0.0,WeatherDisplay:10.37,2013-07-07 00:26:00,
2013-07-06 20:32:00,75.9,64.2,30.03,SSW,202,2.4,3.5,67,0.00,-RA,OVC,0.21,0.0,WeatherDisplay:10.37,2013-07-07 00:32:00,
2013-07-06 20:38:00,75.7,64.0,30.03,SSE,158,2.0,2.4,67,0.00,-RA,OVC,0.21,0.0,WeatherDisplay:10.37,2013-07-07 00:38:00,
2013-07-06 20:43:00,75.6,64.3,30.03,South,180,1.6,2.3,68,0.00,-RA,OVC,0.21,0.0,WeatherDisplay:10.37,2013-07-07 00:43:00,
2013-07-06 20:49:00,75.4,64.1,30.03,SSE,158,2.2,2.4,68,0.00,-RA,OVC,0.21,0.0,WeatherDisplay:10.37,2013-07-07 00:49:00,
2013-07-06 20:54:00,75.2,63.9,30.03,SSW,202,2.2,2.4,68,0.00,-RA,OVC,0.21,0.0,WeatherDisplay:10.37,2013-07-07 00:54:00,
2013-07-06 20:59:00,75.2,64.3,30.03,SSW,202,1.6,2.3,69,0.00,-RA,OVC,0.21,0.0,WeatherDisplay:10.37,2013-07-07 00:59:00,
2013-07-06 21:04:00,75.0,64.2,30.06,WSW,248,3.1,4.6,69,0.00,BKN,OVC,0.21,0.0,WeatherDisplay:10.37,2013-07-07 01:04:00,
2013-07-06 21:10:00,74.8,64.4,30.06,WSW,248,2.6,2.6,70,0.00,BKN,OVC,0.21,0.0,WeatherDisplay:10.37,2013-07-07 01:10:00,
2013-07-06 21:15:00,74.8,64.3,30.06,WSW,241,2.0,4.0,70,0.00,BKN,OVC,0.21,0.0,WeatherDisplay:10.37,2013-07-07 01:15:00,
2013-07-06 21:20:00,74.7,64.6,30.06,SW,233,1.0,3.0,71,0.00,BKN,OVC,0.21,0.0,WeatherDisplay:10.37,2013-07-07 01:20:00,
2013-07-06 21:26:00,74.5,64.9,30.06,SSW,202,1.2,2.3,72,0.00,BKN,OVC,0.21,0.0,WeatherDisplay:10.37,2013-07-07 01:26:00,
2013-07-06 21:31:00,74.5,64.9,30.06,South,180,1.4,2.3,72,0.00,BKN,OVC,0.21,0.0,WeatherDisplay:10.37,2013-07-07 01:31:00,
2013-07-06 21:36:00,74.3,65.1,30.06,SSE,158,0.9,2.2,73,0.00,BKN,OVC,0.21,0.0,WeatherDisplay:10.37,2013-07-07 01:36:00,
2013-07-06 21:41:00,74.1,64.9,30.06,SSE,158,2.0,2.3,73,0.00,BKN,OVC,0.21,0.0,WeatherDisplay:10.37,2013-07-07 01:41:00,
2013-07-06 21:46:00,74.1,65.3,30.06,SSE,158,0.9,2.3,74,0.00,BKN,OVC,0.21,0.0,WeatherDisplay:10.37,2013-07-07 01:46:00,
2013-07-06 21:52:00,74.1,65.7,30.06,SSE,158,0.9,2.3,75,0.00,BKN,OVC,0.21,0.0,WeatherDisplay:10.37,2013-07-07 01:52:00,
2013-07-06 21:57:00,73.9,65.5,30.06,SSE,158,0.0,1.2,75,0.00,BKN,OVC,0.21,0.0,WeatherDisplay:10.37,2013-07-07 01:57:00,
2013-07-06 22:02:00,73.9,65.5,30.06,ENE,68,1.6,2.3,75,0.00,OVC,,0.21,0.0,WeatherDisplay:10.37,2013-07-07 02:02:00,
2013-07-06 22:08:00,73.9,65.5,30.06,ENE,68,3.3,4.6,75,0.00,OVC,,0.21,0.0,WeatherDisplay:10.37,2013-07-07 02:08:00,
2013-07-06 22:13:00,73.9,65.9,30.06,ENE,68,4.9,5.8,76,0.00,OVC,,0.21,0.0,WeatherDisplay:10.37,2013-07-07 02:13:00,
2013-07-06 22:18:00,73.8,65.7,30.03,ESE,112,0.0,2.3,76,0.00,OVC,,0.21,0.0,WeatherDisplay:10.37,2013-07-07 02:18:00,
2013-07-06 22:24:00,73.8,65.7,30.03,SSW,202,2.9,3.5,76,0.00,OVC,,0.21,0.0,WeatherDisplay:10.37,2013-07-07 02:24:00,
2013-07-06 22:29:00,73.6,65.5,30.03,WSW,248,3.1,3.5,76,0.00,OVC,,0.21,0.0,WeatherDisplay:10.37,2013-07-07 02:29:00,
2013-07-06 22:35:00,73.4,65.7,30.06,SSW,202,4.9,5.9,77,0.00,OVC,,0.21,0.0,WeatherDisplay:10.37,2013-07-07 02:35:00,
2013-07-06 22:40:00,73.2,65.6,30.06,SW,227,3.0,6.0,77,0.00,OVC,OVC,0.21,0.0,WeatherDisplay:10.37,2013-07-07 02:40:00,
2013-07-06 22:46:00,73.2,65.9,30.06,SW,225,2.9,4.7,78,0.00,OVC,,0.21,0.0,WeatherDisplay:10.37,2013-07-07 02:46:00,
2013-07-06 22:51:00,73.0,66.1,30.06,SSW,202,2.4,4.6,79,0.00,OVC,,0.21,0.0,WeatherDisplay:10.37,2013-07-07 02:51:00,
2013-07-06 22:57:00,73.0,66.1,30.06,SSW,202,3.1,4.6,79,0.00,OVC,,0.21,0.0,WeatherDisplay:10.37,2013-07-07 02:57:00,
2013-07-06 23:02:00,73.0,66.5,30.06,SSE,158,0.0,1.2,80,0.00,OVC,,0.21,0.0,WeatherDisplay:10.37,2013-07-07 03:02:00,
2013-07-06 23:07:00,73.0,66.5,30.06,SSW,202,2.0,2.3,80,0.00,OVC,,0.21,0.0,WeatherDisplay:10.37,2013-07-07 03:07:00,
2013-07-06 23:12:00,73.0,66.5,30.06,ESE,112,0.0,0.0,80,0.00,OVC,,0.21,0.0,WeatherDisplay:10.37,2013-07-07 03:12:00,
2013-07-06 23:18:00,73.0,66.9,30.09,WSW,248,0.9,1.2,81,0.00,OVC,,0.21,0.0,WeatherDisplay:10.37,2013-07-07 03:18:00,
2013-07-06 23:23:00,73.0,66.9,30.09,SSW,202,1.6,2.3,81,0.00,OVC,,0.21,0.0,WeatherDisplay:10.37,2013-07-07 03:23:00,
2013-07-06 23:28:00,73.0,66.9,30.09,SW,225,2.0,2.6,81,0.00,OVC,,0.21,0.0,WeatherDisplay:10.37,2013-07-07 03:28:00,
2013-07-06 23:33:00,73.0,66.9,30.03,WSW,248,2.4,3.5,81,0.00,OVC,,0.21,0.0,WeatherDisplay:10.37,2013-07-07 03:33:00,
2013-07-06 23:38:00,72.9,66.7,30.03,WSW,248,3.6,4.6,81,0.00,OVC,,0.21,0.0,WeatherDisplay:10.37,2013-07-07 03:38:00,
2013-07-06 23:44:00,72.9,66.7,30.03,SSW,202,4.7,5.8,81,0.00,OVC,,0.21,0.0,WeatherDisplay:10.37,2013-07-07 03:44:00,
2013-07-06 23:49:00,72.9,66.7,30.06,SW,225,4.9,5.8,81,0.00,OVC,,0.21,0.0,WeatherDisplay:10.37,2013-07-07 03:49:00,
2013-07-06 23:55:00,72.9,67.0,30.06,SSW,202,2.9,4.6,82,0.00,OVC,,0.21,0.0,WeatherDisplay:10.37,2013-07-07 03:55:00,